Terminal Aerodrome Forecast
Issued by NWS

Home | Current Version | Previous Version | Text Only | Print | Product List | Glossary On
Versions: 1 2 3 4 5 6 7 8 9 10 11 12 13 14 15 16 17 18 19 20 21 22 23 24 25 26 27 28 29 30 31 32 33 34 35 36 37 38 39 40 41 42
088
FTUS41 KOKX 210011 AAA
TAFGON
TAF AMD
KGON 210011Z 2100/2124 23008KT P6SM SCT060 SCT200
      TEMPO 2100/2103 5SM -SHRA SCT025 BKN035
     FM210400 34005KT P6SM FEW060
     FM211200 29007KT P6SM SKC
     FM211500 26008KT P6SM FEW050=

USA.gov is the U.S. government's official web portal to all federal, state and local government web resources and services.